Time;durP1;ratioP1;P1;durP2;ratioP2;P2;SDS_P1;SDS_P2;PMS_P1;PMS_P2;Temp;Humidity;BMP_temperature;BMP_pressure;BME280_temperature;BME280_humidity;BME280_pressure;Samples;Min_cycle;Max_cycle;Signal;HPM_P1;HPM_P2
2021/01/28 06:01:35;;;;;;;;;;;;;;;;;;5083575;28;20417;-47
2021/01/28 06:04:34;;;;;;;5.70;0.73;;;;;;;;;;5084817;28;19934;-47
2021/01/28 06:07:28;;;;;;;0.00;0.00;;;;;;;;;;5109592;28;20562;-50
2021/01/28 06:10:08;;;;;;;0.80;0.45;;;;;;;;;;5085312;28;20044;-50
2021/01/28 06:12:54;;;;;;;3.75;0.60;;;;;;;;;;5088044;28;20036;-51
2021/01/28 06:15:20;;;;;;;1.15;0.10;;;;;;;;;;5074463;28;20127;-52
2021/01/28 06:18:12;;;;;;;11.38;0.80;;;;;;;;;;5073425;28;20027;-51
2021/01/28 06:21:02;;;;;;;1.13;0.33;;;;;;;;;;5073117;28;20031;-56
2021/01/28 06:23:29;;;;;;;1.65;0.38;;;;;;;;;;5073690;28;20063;-54
2021/01/28 06:26:24;;;;;;;0.17;0.08;;;;;;;;;;5073306;28;20166;-53
2021/01/28 06:29:10;;;;;;;6.30;0.70;;;;;;;;;;5069975;28;20021;-53
2021/01/28 06:31:36;;;;;;;;;;;;;;;;;;5068646;28;20563;-51
2021/01/28 06:34:22;;;;;;;0.10;0.10;;;;;;;;;;5022428;28;19928;-53
2021/01/28 06:37:26;;;;;;;0.95;0.82;;;;;;;;;;5020022;28;20111;-53
2021/01/28 06:40:18;;;;;;;0.00;0.00;;;;;;;;;;5021399;28;20046;-54
2021/01/28 06:43:21;;;;;;;1.73;0.40;;;;;;;;;;5011328;28;20518;-48
2021/01/28 06:46:48;;;;;;;12.52;3.20;;;;;;;;;;4985693;28;20409;-52
2021/01/28 06:49:42;;;;;;;4.00;0.57;;;;;;;;;;4964652;28;20669;-55
2021/01/28 06:52:08;;;;;;;;;;;;;;;;;;4949942;28;20046;-51
2021/01/28 06:55:02;;;;;;;1.35;0.35;;;;;;;;;;4965454;28;19954;-58
2021/01/28 06:58:07;;;;;;;2.80;0.77;;;;;;;;;;4911500;29;20060;-51
2021/01/28 07:01:06;;;;;;;0.43;0.10;;;;;;;;;;4908393;29;20128;-54
2021/01/28 07:03:51;;;;;;;0.75;0.17;;;;;;;;;;4871989;29;20029;-54
2021/01/28 07:06:47;;;;;;;0.00;0.00;;;;;;;;;;4892823;29;20100;-50
2021/01/28 07:09:53;;;;;;;0.65;0.20;;;;;;;;;;4892637;29;20056;-54
2021/01/28 07:12:24;;;;;;;2.85;0.38;;;;;;;;;;4876549;29;20096;-51
2021/01/28 07:15:12;;;;;;;0.60;0.20;;;;;;;;;;4874823;29;20045;-49
2021/01/28 07:18:16;;;;;;;2.63;1.02;;;;;;;;;;4875584;29;20513;-55
2021/01/28 07:20:58;;;;;;;0.00;0.00;;;;;;;;;;4899289;29;20555;-50
2021/01/28 07:23:24;;;;;;;2.00;0.43;;;;;;;;;;4897524;29;20052;-55
2021/01/28 07:25:53;;;;;;;0.00;0.00;;;;;;;;;;4913478;29;20059;-47
2021/01/28 07:28:19;;;;;;;11.07;0.75;;;;;;;;;;4926022;28;20030;-52
2021/01/28 07:30:46;;;;;;;4.65;0.70;;;;;;;;;;4971398;28;20130;-55
2021/01/28 07:33:24;;;;;;;2.28;0.40;;;;;;;;;;4974795;28;20039;-48
2021/01/28 07:36:25;;;;;;;0.35;0.30;;;;;;;;;;4974699;28;20043;-47
2021/01/28 07:39:28;;;;;;;0.10;0.00;;;;;;;;;;4974630;28;20082;-51
2021/01/28 07:42:22;;;;;;;3.80;0.98;;;;;;;;;;4974393;28;20579;-50
2021/01/28 07:45:27;;;;;;;0.30;0.10;;;;;;;;;;4912871;29;20052;-47
2021/01/28 07:48:00;;;;;;;7.90;0.85;;;;;;;;;;4928322;29;20032;-47
2021/01/28 07:50:46;;;;;;;0.85;0.17;;;;;;;;;;4893605;29;20482;-49
2021/01/28 07:53:30;;;;;;;0.00;0.00;;;;;;;;;;4910822;29;20051;-49
2021/01/28 07:55:56;;;;;;;4.30;0.35;;;;;;;;;;4912663;29;20048;-47
2021/01/28 07:58:28;;;;;;;2.45;1.33;;;;;;;;;;4912236;29;20079;-50
2021/01/28 08:00:55;;;;;;;0.65;0.10;;;;;;;;;;4913692;29;20096;-47
2021/01/28 08:03:35;;;;;;;1.65;0.32;;;;;;;;;;4912809;29;20048;-53
2021/01/28 08:06:06;;;;;;;1.95;0.00;;;;;;;;;;4912694;29;20146;-50
2021/01/28 08:08:32;;;;;;;0.65;0.63;;;;;;;;;;4908359;29;20521;-50
2021/01/28 08:11:17;;;;;;;1.75;0.65;;;;;;;;;;4924595;29;20150;-48
2021/01/28 08:13:43;;;;;;;3.20;0.38;;;;;;;;;;4931004;29;20028;-48
2021/01/28 08:16:15;;;;;;;3.50;0.73;;;;;;;;;;4950820;29;20457;-49
2021/01/28 08:18:43;;;;;;;0.00;0.00;;;;;;;;;;4950849;29;20031;-49
2021/01/28 08:21:18;;;;;;;5.75;0.65;;;;;;;;;;4949155;28;20039;-48
2021/01/28 08:23:45;;;;;;;0.00;0.00;;;;;;;;;;4980322;28;20109;-48
2021/01/28 08:26:12;;;;;;;3.03;0.65;;;;;;;;;;4986403;28;20039;-50
2021/01/28 08:28:41;;;;;;;1.65;0.98;;;;;;;;;;5054138;28;20037;-49
2021/01/28 08:31:17;;;;;;;5.80;1.30;;;;;;;;;;5067632;28;20082;-47
2021/01/28 08:33:45;;;;;;;4.75;1.55;;;;;;;;;;5066736;28;20389;-49
2021/01/28 08:36:18;;;;;;;7.85;1.33;;;;;;;;;;5064984;28;20099;-48
2021/01/28 08:38:44;;;;;;;5.45;0.63;;;;;;;;;;5063054;28;20025;-51
2021/01/28 08:41:15;;;;;;;2.08;0.60;;;;;;;;;;5065026;28;20020;-51
2021/01/28 08:43:42;;;;;;;4.15;0.80;;;;;;;;;;5068400;28;20032;-48
2021/01/28 08:46:11;;;;;;;5.05;2.08;;;;;;;;;;5068560;28;20024;-48
2021/01/28 08:48:37;;;;;;;5.30;1.15;;;;;;;;;;5067780;28;20493;-49
2021/01/28 08:51:09;;;;;;;1.98;0.50;;;;;;;;;;5066600;28;20035;-48
2021/01/28 08:53:35;;;;;;;3.03;0.70;;;;;;;;;;5064357;28;20044;-54
2021/01/28 08:56:15;;;;;;;1.63;0.30;;;;;;;;;;5068646;28;20031;-48
2021/01/28 08:58:41;;;;;;;6.13;0.95;;;;;;;;;;5052070;28;20046;-50
2021/01/28 09:01:09;;;;;;;0.80;0.05;;;;;;;;;;5055837;28;20131;-48
2021/01/28 09:03:53;;;;;;;2.55;0.32;;;;;;;;;;5066475;28;20025;-51
2021/01/28 09:06:19;;;;;;;16.27;1.02;;;;;;;;;;5067835;28;20027;-47
2021/01/28 09:08:46;;;;;;;0.28;0.10;;;;;;;;;;5068564;28;20016;-50
2021/01/28 09:11:12;;;;;;;5.38;0.80;;;;;;;;;;5068476;28;20044;-55
2021/01/28 09:13:38;;;;;;;0.10;0.00;;;;;;;;;;5068647;28;20025;-47
2021/01/28 09:16:09;;;;;;;6.22;1.35;;;;;;;;;;5067907;28;20494;-49
2021/01/28 09:18:43;;;;;;;6.30;1.13;;;;;;;;;;5069726;28;20036;-51
2021/01/28 09:21:11;;;;;;;5.65;0.70;;;;;;;;;;5065957;28;20033;-53
2021/01/28 09:23:38;;;;;;;0.15;0.05;;;;;;;;;;5069020;28;20017;-47
2021/01/28 09:26:13;;;;;;;3.65;1.42;;;;;;;;;;5066212;28;20036;-47
2021/01/28 09:28:39;;;;;;;6.35;1.13;;;;;;;;;;5068414;28;20119;-54
2021/01/28 09:31:19;;;;;;;6.03;0.65;;;;;;;;;;5069796;28;20039;-50
2021/01/28 09:33:45;;;;;;;26.05;4.28;;;;;;;;;;5069548;28;20494;-47
2021/01/28 09:36:17;;;;;;;2.53;1.00;;;;;;;;;;5067587;28;20024;-48
2021/01/28 09:39:13;;;;;;;8.52;1.42;;;;;;;;;;5064451;28;20024;-47
2021/01/28 09:41:42;;;;;;;13.48;1.63;;;;;;;;;;5060162;28;20040;-52
2021/01/28 09:44:27;;;;;;;12.68;1.52;;;;;;;;;;5068174;28;20112;-48
2021/01/28 09:47:02;;;;;;;1.13;0.20;;;;;;;;;;5065925;28;20409;-48
2021/01/28 09:49:28;;;;;;;8.35;1.45;;;;;;;;;;5068100;28;20056;-49
2021/01/28 09:51:55;;;;;;;14.68;1.38;;;;;;;;;;5070583;28;20162;-49
2021/01/28 09:54:24;;;;;;;2.75;0.43;;;;;;;;;;5067091;28;20107;-50
2021/01/28 09:56:51;;;;;;;1.95;1.00;;;;;;;;;;5067983;28;20036;-48
2021/01/28 09:59:17;;;;;;;6.13;1.38;;;;;;;;;;5067736;28;20029;-47
2021/01/28 10:01:44;;;;;;;0.30;0.30;;;;;;;;;;5067930;28;20051;-50
2021/01/28 10:04:11;;;;;;;3.50;0.55;;;;;;;;;;5068642;28;20025;-49
2021/01/28 10:06:38;;;;;;;8.20;1.80;;;;;;;;;;5069754;28;20032;-50
2021/01/28 10:09:05;;;;;;;1.98;1.27;;;;;;;;;;5067774;28;20058;-51
2021/01/28 10:11:31;;;;;;;5.90;1.40;;;;;;;;;;5068476;28;20048;-48
2021/01/28 10:13:57;;;;;;;1.95;0.10;;;;;;;;;;5068015;28;20074;-47
2021/01/28 10:16:23;;;;;;;2.55;1.20;;;;;;;;;;5067965;28;20482;-48
2021/01/28 10:18:49;;;;;;;0.30;0.15;;;;;;;;;;5070191;28;20059;-48
2021/01/28 10:21:15;;;;;;;0.38;0.17;;;;;;;;;;5068278;28;20025;-48
2021/01/28 10:23:42;;;;;;;7.78;1.52;;;;;;;;;;5067711;28;20031;-48
2021/01/28 10:26:08;;;;;;;6.47;1.40;;;;;;;;;;5067450;28;20027;-50
2021/01/28 10:28:34;;;;;;;0.70;0.45;;;;;;;;;;5067805;28;20033;-48
2021/01/28 10:31:02;;;;;;;21.75;1.65;;;;;;;;;;5068489;28;20028;-48
2021/01/28 10:33:29;;;;;;;3.10;0.20;;;;;;;;;;5064857;28;20070;-49
2021/01/28 10:35:56;;;;;;;1.08;0.10;;;;;;;;;;5067846;28;20116;-47
2021/01/28 10:38:22;;;;;;;0.25;0.20;;;;;;;;;;5072066;28;20055;-48
2021/01/28 10:40:48;;;;;;;1.13;0.45;;;;;;;;;;5071821;28;20016;-49
2021/01/28 10:43:14;;;;;;;0.03;0.00;;;;;;;;;;5072505;28;20451;-50
2021/01/28 10:45:41;;;;;;;1.17;0.52;;;;;;;;;;5071647;28;20029;-51
2021/01/28 10:48:08;;;;;;;0.15;0.03;;;;;;;;;;5069799;28;20104;-48
2021/01/28 10:50:35;;;;;;;0.95;0.15;;;;;;;;;;5071007;28;20068;-52
2021/01/28 10:53:01;;;;;;;0.00;0.00;;;;;;;;;;5072015;28;20074;-49
2021/01/28 10:55:29;;;;;;;7.72;0.77;;;;;;;;;;5070378;28;20391;-47
2021/01/28 10:57:55;;;;;;;8.38;1.67;;;;;;;;;;5072629;28;20097;-49
2021/01/28 11:00:22;;;;;;;2.55;0.10;;;;;;;;;;5069842;28;20466;-49
2021/01/28 11:02:48;;;;;;;2.22;0.30;;;;;;;;;;5070109;28;20016;-48
2021/01/28 11:05:19;;;;;;;6.20;1.17;;;;;;;;;;5070614;28;20044;-47
2021/01/28 11:07:45;;;;;;;2.92;0.75;;;;;;;;;;5071560;28;20029;-48
2021/01/28 11:10:11;;;;;;;0.98;0.32;;;;;;;;;;5072064;28;20560;-48
2021/01/28 11:12:38;;;;;;;4.05;1.05;;;;;;;;;;5070436;28;20028;-49
2021/01/28 11:15:05;;;;;;;0.00;0.00;;;;;;;;;;5069503;28;20021;-50
2021/01/28 11:17:31;;;;;;;4.22;1.00;;;;;;;;;;5069627;28;20029;-47
2021/01/28 11:19:57;;;;;;;24.02;2.63;;;;;;;;;;5070548;28;20036;-48
2021/01/28 11:22:23;;;;;;;2.08;0.38;;;;;;;;;;5071418;28;20111;-53
2021/01/28 11:24:50;;;;;;;9.18;0.77;;;;;;;;;;5071059;28;20060;-50
2021/01/28 11:27:17;;;;;;;11.40;1.08;;;;;;;;;;5069402;28;20515;-49
2021/01/28 11:29:43;;;;;;;0.40;0.40;;;;;;;;;;5070834;28;20393;-48
2021/01/28 11:32:09;;;;;;;0.43;0.25;;;;;;;;;;5070839;28;20397;-51
2021/01/28 11:34:35;;;;;;;0.60;0.20;;;;;;;;;;5070454;28;20017;-56
2021/01/28 11:37:02;;;;;;;9.30;1.98;;;;;;;;;;5070699;28;20443;-48
2021/01/28 11:39:28;;;;;;;3.15;0.70;;;;;;;;;;5068397;28;20477;-49
2021/01/28 11:41:54;;;;;;;1.75;0.73;;;;;;;;;;5068566;28;20074;-48
2021/01/28 11:44:20;;;;;;;0.75;0.38;;;;;;;;;;5066987;28;20028;-49
2021/01/28 11:46:46;;;;;;;1.17;0.43;;;;;;;;;;5069329;28;20307;-54
2021/01/28 11:49:14;;;;;;;5.20;0.28;;;;;;;;;;5068979;28;20097;-54
2021/01/28 11:51:40;;;;;;;5.10;0.55;;;;;;;;;;5068360;28;20036;-48
2021/01/28 11:54:07;;;;;;;7.80;1.95;;;;;;;;;;5066407;28;20082;-48
2021/01/28 11:56:33;;;;;;;4.40;0.68;;;;;;;;;;5065014;28;20110;-50
2021/01/28 11:58:59;;;;;;;9.02;2.90;;;;;;;;;;5068501;28;20666;-51
2021/01/28 12:01:25;;;;;;;4.90;1.10;;;;;;;;;;5069918;28;20044;-51
2021/01/28 12:03:51;;;;;;;5.63;2.47;;;;;;;;;;5069852;28;20032;-53
2021/01/28 12:06:17;;;;;;;5.93;1.23;;;;;;;;;;5067795;28;20029;-54
2021/01/28 12:08:44;;;;;;;22.27;1.60;;;;;;;;;;5065559;28;20500;-55
2021/01/28 12:11:10;;;;;;;0.60;0.13;;;;;;;;;;5069660;28;20041;-55
2021/01/28 12:13:36;;;;;;;7.55;1.02;;;;;;;;;;5066994;28;20020;-55
2021/01/28 12:16:02;;;;;;;1.08;0.98;;;;;;;;;;5068667;28;20029;-53
2021/01/28 12:18:28;;;;;;;4.93;0.40;;;;;;;;;;5066895;28;20413;-53
2021/01/28 12:20:55;;;;;;;8.55;1.65;;;;;;;;;;5066454;28;20401;-53
2021/01/28 12:23:21;;;;;;;1.27;0.52;;;;;;;;;;5067483;28;20020;-52
2021/01/28 12:25:47;;;;;;;14.60;3.10;;;;;;;;;;5068005;28;20040;-54
2021/01/28 12:28:13;;;;;;;0.52;0.52;;;;;;;;;;5067871;28;20036;-55
2021/01/28 12:30:39;;;;;;;0.25;0.25;;;;;;;;;;5069200;28;20098;-57
2021/01/28 12:33:06;;;;;;;5.63;0.55;;;;;;;;;;5066129;28;20024;-50
2021/01/28 12:35:32;;;;;;;3.15;0.73;;;;;;;;;;5068190;28;20047;-49
2021/01/28 12:37:58;;;;;;;0.73;0.38;;;;;;;;;;5068376;28;20109;-54
2021/01/28 12:40:25;;;;;;;6.63;0.55;;;;;;;;;;5067360;28;20033;-52
2021/01/28 12:42:51;;;;;;;5.13;0.63;;;;;;;;;;5068147;28;20573;-50
2021/01/28 12:45:18;;;;;;;1.02;0.35;;;;;;;;;;5067117;28;20035;-53
2021/01/28 12:47:44;;;;;;;1.00;0.20;;;;;;;;;;5065531;28;20025;-50
2021/01/28 12:50:11;;;;;;;2.05;0.68;;;;;;;;;;5068028;28;20083;-53
2021/01/28 12:52:37;;;;;;;3.95;1.38;;;;;;;;;;5067752;28;20112;-58
2021/01/28 12:55:04;;;;;;;2.10;0.45;;;;;;;;;;5069404;28;20052;-49
2021/01/28 12:57:30;;;;;;;0.20;0.20;;;;;;;;;;5068149;28;20035;-49
2021/01/28 12:59:56;;;;;;;1.00;0.20;;;;;;;;;;5059972;28;20052;-52
2021/01/28 13:02:22;;;;;;;1.65;0.98;;;;;;;;;;5066108;28;20470;-50
2021/01/28 13:04:48;;;;;;;0.63;0.10;;;;;;;;;;5065656;28;20036;-48
2021/01/28 13:07:15;;;;;;;2.58;0.65;;;;;;;;;;5067835;28;20435;-51
2021/01/28 13:09:41;;;;;;;0.80;0.35;;;;;;;;;;5069100;28;20021;-52
2021/01/28 13:12:07;;;;;;;0.80;0.30;;;;;;;;;;5068478;28;20037;-50
2021/01/28 13:14:33;;;;;;;0.22;0.20;;;;;;;;;;5068368;28;20024;-53
2021/01/28 13:16:59;;;;;;;7.18;1.52;;;;;;;;;;5065882;28;20032;-51
2021/01/28 13:19:25;;;;;;;0.63;0.30;;;;;;;;;;5068605;28;20032;-59
2021/01/28 13:21:51;;;;;;;4.82;1.17;;;;;;;;;;5070301;28;20047;-49
2021/01/28 13:24:18;;;;;;;2.90;0.40;;;;;;;;;;5068131;28;20031;-52
2021/01/28 13:26:44;;;;;;;3.95;2.13;;;;;;;;;;5069087;28;20036;-65
2021/01/28 13:29:10;;;;;;;5.68;0.75;;;;;;;;;;5069309;28;20405;-70
2021/01/28 13:31:36;;;;;;;3.58;0.60;;;;;;;;;;5068614;28;20055;-63
2021/01/28 13:34:04;;;;;;;1.75;0.50;;;;;;;;;;5068805;28;20039;-61
2021/01/28 13:36:30;;;;;;;5.68;1.38;;;;;;;;;;5066886;28;20012;-50
2021/01/28 13:38:56;;;;;;;7.97;1.27;;;;;;;;;;5065672;28;20028;-56
2021/01/28 13:41:22;;;;;;;3.75;0.80;;;;;;;;;;5065458;28;20113;-52
2021/01/28 13:43:48;;;;;;;14.32;1.50;;;;;;;;;;5067020;28;20481;-49
2021/01/28 13:46:14;;;;;;;11.05;0.75;;;;;;;;;;5067153;28;20078;-61
2021/01/28 13:48:41;;;;;;;0.20;0.20;;;;;;;;;;5066669;28;20452;-52
2021/01/28 13:51:07;;;;;;;11.70;1.13;;;;;;;;;;5063406;28;20449;-54
2021/01/28 13:53:33;;;;;;;1.95;0.75;;;;;;;;;;5065008;28;20032;-48
2021/01/28 13:55:59;;;;;;;4.45;0.90;;;;;;;;;;5066525;28;20448;-50
2021/01/28 13:58:25;;;;;;;10.70;1.67;;;;;;;;;;5065585;28;20028;-54
2021/01/28 14:00:51;;;;;;;5.53;1.33;;;;;;;;;;5065563;28;20123;-50
2021/01/28 14:03:17;;;;;;;1.05;0.98;;;;;;;;;;5065641;28;20115;-49
2021/01/28 14:05:43;;;;;;;13.02;1.02;;;;;;;;;;5065138;28;20111;-54
2021/01/28 14:08:10;;;;;;;5.57;0.88;;;;;;;;;;5067238;28;20127;-53
2021/01/28 14:10:36;;;;;;;5.28;0.85;;;;;;;;;;5066497;28;20051;-52
2021/01/28 14:13:02;;;;;;;5.22;0.75;;;;;;;;;;5073465;28;20060;-53
2021/01/28 14:15:29;;;;;;;2.17;1.98;;;;;;;;;;5070529;28;20044;-50
2021/01/28 14:17:56;;;;;;;1.08;0.93;;;;;;;;;;5070053;28;20056;-60
2021/01/28 14:20:22;;;;;;;2.72;0.73;;;;;;;;;;5070414;28;20021;-48
2021/01/28 14:22:48;;;;;;;4.80;0.95;;;;;;;;;;5071932;28;20032;-52
2021/01/28 14:25:16;;;;;;;1.77;0.20;;;;;;;;;;5069586;28;20075;-50
2021/01/28 14:27:42;;;;;;;0.25;0.15;;;;;;;;;;5070821;28;20035;-51
2021/01/28 14:30:10;;;;;;;3.28;1.50;;;;;;;;;;5068812;28;20028;-53
2021/01/28 14:32:37;;;;;;;3.70;0.85;;;;;;;;;;5069298;28;20024;-54
2021/01/28 14:35:04;;;;;;;2.55;0.22;;;;;;;;;;5070349;28;20383;-51
2021/01/28 14:37:30;;;;;;;11.30;0.50;;;;;;;;;;5071265;28;20549;-51
2021/01/28 14:39:56;;;;;;;0.00;0.00;;;;;;;;;;5071155;28;20104;-50
2021/01/28 14:42:23;;;;;;;0.63;0.28;;;;;;;;;;5069306;28;20042;-48
2021/01/28 14:44:49;;;;;;;1.63;0.60;;;;;;;;;;5069225;28;20028;-50
2021/01/28 14:47:15;;;;;;;0.22;0.15;;;;;;;;;;5070751;28;20023;-49
2021/01/28 14:49:41;;;;;;;8.65;0.43;;;;;;;;;;5067617;28;20517;-58
2021/01/28 14:52:07;;;;;;;0.10;0.10;;;;;;;;;;5073870;28;20570;-50
2021/01/28 14:54:34;;;;;;;0.05;0.05;;;;;;;;;;5070186;28;20074;-53
2021/01/28 14:57:00;;;;;;;0.03;0.00;;;;;;;;;;5068433;28;20399;-49
2021/01/28 14:59:26;;;;;;;1.65;0.95;;;;;;;;;;5070826;28;20025;-53
2021/01/28 15:01:52;;;;;;;0.85;0.20;;;;;;;;;;5070188;28;20029;-51
2021/01/28 15:04:19;;;;;;;1.13;0.08;;;;;;;;;;5071763;28;20052;-52
2021/01/28 15:06:45;;;;;;;1.58;0.00;;;;;;;;;;5069254;28;20025;-48
2021/01/28 15:09:11;;;;;;;2.72;0.30;;;;;;;;;;5069692;28;20039;-52
2021/01/28 15:11:37;;;;;;;0.20;0.15;;;;;;;;;;5069749;28;20679;-50
2021/01/28 15:14:04;;;;;;;0.70;0.70;;;;;;;;;;5071104;28;20031;-50
2021/01/28 15:16:31;;;;;;;0.20;0.20;;;;;;;;;;5070127;28;20029;-54
2021/01/28 15:18:57;;;;;;;0.00;0.00;;;;;;;;;;5069109;28;20422;-52
2021/01/28 15:21:23;;;;;;;0.15;0.15;;;;;;;;;;5068632;28;20558;-49
2021/01/28 15:23:49;;;;;;;0.00;0.00;;;;;;;;;;5069106;28;20070;-51
2021/01/28 15:26:15;;;;;;;6.30;1.05;;;;;;;;;;5069607;28;20143;-49
2021/01/28 15:28:42;;;;;;;1.45;0.50;;;;;;;;;;5069588;28;20495;-48
2021/01/28 15:31:08;;;;;;;2.15;0.57;;;;;;;;;;5075341;28;20079;-48
2021/01/28 15:33:34;;;;;;;0.55;0.13;;;;;;;;;;5071357;28;20460;-52
2021/01/28 15:36:00;;;;;;;0.38;0.17;;;;;;;;;;5067213;28;20036;-48
2021/01/28 15:38:28;;;;;;;0.63;0.63;;;;;;;;;;5067630;28;20033;-53
2021/01/28 15:40:55;;;;;;;3.30;0.88;;;;;;;;;;5061489;28;20112;-51
2021/01/28 15:43:21;;;;;;;5.95;0.22;;;;;;;;;;5071152;28;20012;-50
2021/01/28 15:45:47;;;;;;;0.77;0.60;;;;;;;;;;5069241;28;20020;-49
2021/01/28 15:48:13;;;;;;;0.38;0.38;;;;;;;;;;5069222;28;20043;-49
2021/01/28 15:50:40;;;;;;;0.00;0.00;;;;;;;;;;5069042;28;20104;-50
2021/01/28 15:53:06;;;;;;;4.35;0.47;;;;;;;;;;5069910;28;20352;-50
2021/01/28 15:55:32;;;;;;;1.90;0.20;;;;;;;;;;5069256;28;20048;-48
2021/01/28 15:57:58;;;;;;;2.22;0.22;;;;;;;;;;5058316;28;20043;-49
2021/01/28 16:00:25;;;;;;;0.40;0.10;;;;;;;;;;5060871;28;20064;-52
2021/01/28 16:02:51;;;;;;;3.03;0.20;;;;;;;;;;5059683;28;20021;-52
2021/01/28 16:05:17;;;;;;;0.85;0.30;;;;;;;;;;5064811;28;20052;-50
2021/01/28 16:07:43;;;;;;;1.20;1.17;;;;;;;;;;5066518;28;20597;-49
2021/01/28 16:10:09;;;;;;;0.00;0.00;;;;;;;;;;5067279;28;20062;-49
2021/01/28 16:12:36;;;;;;;2.75;0.93;;;;;;;;;;5066750;28;20094;-49
2021/01/28 16:15:02;;;;;;;0.03;0.00;;;;;;;;;;5066434;28;20035;-50
2021/01/28 16:17:28;;;;;;;1.05;0.40;;;;;;;;;;5067108;28;20024;-52
2021/01/28 16:19:54;;;;;;;0.00;0.00;;;;;;;;;;5067267;28;20036;-50
2021/01/28 16:22:21;;;;;;;1.40;0.17;;;;;;;;;;5069138;28;20017;-49
2021/01/28 16:24:48;;;;;;;0.00;0.00;;;;;;;;;;5069838;28;20040;-51
2021/01/28 16:27:14;;;;;;;0.55;0.10;;;;;;;;;;5067011;28;20038;-49
2021/01/28 16:29:40;;;;;;;0.00;0.00;;;;;;;;;;5067533;28;20115;-52
2021/01/28 16:32:06;;;;;;;0.00;0.00;;;;;;;;;;5068518;28;20071;-53
2021/01/28 16:34:32;;;;;;;0.00;0.00;;;;;;;;;;5068016;28;20040;-48
2021/01/28 16:36:58;;;;;;;0.10;0.00;;;;;;;;;;5070391;28;20027;-49
2021/01/28 16:39:30;;;;;;;0.10;0.00;;;;;;;;;;5068182;28;20051;-48
2021/01/28 16:41:56;;;;;;;0.10;0.10;;;;;;;;;;5063332;28;20042;-48
2021/01/28 16:44:22;;;;;;;0.35;0.00;;;;;;;;;;5061585;28;20025;-49
2021/01/28 16:46:48;;;;;;;1.15;0.20;;;;;;;;;;5066784;28;20024;-52
2021/01/28 16:49:14;;;;;;;2.63;0.25;;;;;;;;;;5067958;28;20013;-50
2021/01/28 16:51:42;;;;;;;2.25;2.13;;;;;;;;;;5066104;28;20033;-50
2021/01/28 16:54:08;;;;;;;0.10;0.00;;;;;;;;;;5062638;28;20021;-51
2021/01/28 16:56:34;;;;;;;0.32;0.10;;;;;;;;;;5064921;28;20036;-51
2021/01/28 16:59:00;;;;;;;0.10;0.10;;;;;;;;;;5065600;28;20035;-50
2021/01/28 17:01:27;;;;;;;0.00;0.00;;;;;;;;;;5060912;28;20044;-50
2021/01/28 17:03:53;;;;;;;0.77;0.28;;;;;;;;;;5056337;28;20035;-48
2021/01/28 17:06:19;;;;;;;0.00;0.00;;;;;;;;;;5061580;28;20489;-49
2021/01/28 17:08:46;;;;;;;0.57;0.45;;;;;;;;;;5058925;28;20044;-60
2021/01/28 17:11:12;;;;;;;0.10;0.03;;;;;;;;;;5055722;28;20276;-56
2021/01/28 17:13:38;;;;;;;3.80;0.20;;;;;;;;;;5055628;28;20013;-51
2021/01/28 17:16:04;;;;;;;0.28;0.10;;;;;;;;;;5051676;28;20025;-53
2021/01/28 17:18:30;;;;;;;0.00;0.00;;;;;;;;;;5054456;28;20029;-54
2021/01/28 17:20:57;;;;;;;1.70;1.40;;;;;;;;;;5056580;28;20049;-53
2021/01/28 17:23:23;;;;;;;0.10;0.10;;;;;;;;;;5058029;28;20021;-62
2021/01/28 17:25:49;;;;;;;10.55;0.68;;;;;;;;;;5054759;28;20021;-52
2021/01/28 17:28:16;;;;;;;0.00;0.00;;;;;;;;;;5051589;28;20028;-55
2021/01/28 17:30:42;;;;;;;0.60;0.10;;;;;;;;;;5049989;28;20097;-50
2021/01/28 17:33:08;;;;;;;0.10;0.10;;;;;;;;;;5052492;28;20537;-50
2021/01/28 17:35:34;;;;;;;0.20;0.20;;;;;;;;;;5059798;28;20053;-52
2021/01/28 17:38:01;;;;;;;1.35;0.47;;;;;;;;;;5053045;28;20486;-52
2021/01/28 17:40:27;;;;;;;0.63;0.63;;;;;;;;;;5060930;28;20037;-51
2021/01/28 17:42:54;;;;;;;0.00;0.00;;;;;;;;;;5057450;28;20012;-53
2021/01/28 17:45:22;;;;;;;0.75;0.13;;;;;;;;;;5059905;28;20120;-49
2021/01/28 17:47:50;;;;;;;1.05;0.20;;;;;;;;;;5060448;28;20098;-55
2021/01/28 17:50:17;;;;;;;0.93;0.30;;;;;;;;;;5058727;28;20119;-50
2021/01/28 17:52:44;;;;;;;1.48;0.75;;;;;;;;;;5055528;28;20027;-56
2021/01/28 17:55:10;;;;;;;1.17;0.40;;;;;;;;;;5063920;28;20047;-51
2021/01/28 17:57:36;;;;;;;0.00;0.00;;;;;;;;;;5060588;28;20021;-48
2021/01/28 18:00:06;;;;;;;10.75;1.05;;;;;;;;;;5059477;28;20045;-52
2021/01/28 18:02:32;;;;;;;2.30;0.70;;;;;;;;;;5058343;28;20037;-56
2021/01/28 18:04:58;;;;;;;0.00;0.00;;;;;;;;;;5057273;28;20035;-54
2021/01/28 18:07:24;;;;;;;0.30;0.30;;;;;;;;;;5054431;28;20025;-49
2021/01/28 18:09:50;;;;;;;0.20;0.20;;;;;;;;;;5055663;28;20048;-49
2021/01/28 18:12:17;;;;;;;7.93;0.60;;;;;;;;;;5057938;28;20020;-57
2021/01/28 18:14:43;;;;;;;0.38;0.20;;;;;;;;;;5060430;28;20398;-53
2021/01/28 18:17:09;;;;;;;0.00;0.00;;;;;;;;;;5060212;28;20418;-52
2021/01/28 18:19:36;;;;;;;0.00;0.00;;;;;;;;;;5064369;28;20623;-56
2021/01/28 18:22:02;;;;;;;0.22;0.15;;;;;;;;;;5059597;28;20044;-54
2021/01/28 18:24:30;;;;;;;0.10;0.00;;;;;;;;;;5055206;28;20021;-54
2021/01/28 18:26:56;;;;;;;1.85;0.30;;;;;;;;;;5060007;28;20108;-54
2021/01/28 18:29:22;;;;;;;0.25;0.10;;;;;;;;;;5064372;28;20119;-55
2021/01/28 18:31:48;;;;;;;1.20;0.20;;;;;;;;;;5066476;28;20036;-55
2021/01/28 18:34:14;;;;;;;0.00;0.00;;;;;;;;;;5053506;28;20024;-53
2021/01/28 18:36:41;;;;;;;0.30;0.05;;;;;;;;;;5064587;28;20039;-53
2021/01/28 18:39:07;;;;;;;1.13;0.30;;;;;;;;;;5064521;28;20028;-54
2021/01/28 18:41:33;;;;;;;1.02;0.93;;;;;;;;;;5060456;28;20032;-54
2021/01/28 18:43:59;;;;;;;0.00;0.00;;;;;;;;;;5065091;28;20020;-54
2021/01/28 18:46:26;;;;;;;0.52;0.10;;;;;;;;;;5066617;28;20040;-57
2021/01/28 18:48:53;;;;;;;0.00;0.00;;;;;;;;;;5054618;28;20025;-54
2021/01/28 18:51:19;;;;;;;0.63;0.10;;;;;;;;;;5061062;28;20032;-54
2021/01/28 18:53:45;;;;;;;2.78;0.10;;;;;;;;;;5066511;28;20489;-56
2021/01/28 18:56:12;;;;;;;0.00;0.00;;;;;;;;;;5062416;28;20079;-54
2021/01/28 18:58:38;;;;;;;0.08;0.08;;;;;;;;;;5058673;28;20505;-56
2021/01/28 19:01:04;;;;;;;1.25;0.08;;;;;;;;;;5069737;28;20570;-53
2021/01/28 19:03:31;;;;;;;3.25;0.47;;;;;;;;;;5065407;28;20027;-55
2021/01/28 19:05:59;;;;;;;0.22;0.00;;;;;;;;;;5065681;28;20484;-54
2021/01/28 19:08:27;;;;;;;0.63;0.03;;;;;;;;;;5069277;28;20025;-62
2021/01/28 19:10:53;;;;;;;0.10;0.00;;;;;;;;;;5068169;28;20124;-51
2021/01/28 19:13:19;;;;;;;0.00;0.00;;;;;;;;;;5070784;28;20021;-52
2021/01/28 19:15:45;;;;;;;7.32;4.05;;;;;;;;;;5070088;28;20070;-50
2021/01/28 19:18:11;;;;;;;0.20;0.20;;;;;;;;;;5068859;28;20016;-49
2021/01/28 19:20:38;;;;;;;0.10;0.08;;;;;;;;;;5063756;28;20033;-54
2021/01/28 19:23:05;;;;;;;0.10;0.00;;;;;;;;;;5069010;28;20021;-52
2021/01/28 19:25:31;;;;;;;0.00;0.00;;;;;;;;;;5068969;28;20028;-57
2021/01/28 19:27:57;;;;;;;0.00;0.00;;;;;;;;;;5069625;28;20048;-52
2021/01/28 19:30:25;;;;;;;0.90;0.13;;;;;;;;;;5067953;28;20066;-50
2021/01/28 19:32:51;;;;;;;0.95;0.73;;;;;;;;;;5068402;28;20108;-52
2021/01/28 19:35:19;;;;;;;0.00;0.00;;;;;;;;;;5069920;28;20056;-50
2021/01/28 19:37:45;;;;;;;0.13;0.13;;;;;;;;;;5069390;28;20490;-49
2021/01/28 19:40:14;;;;;;;0.40;0.10;;;;;;;;;;5068138;28;20085;-51
2021/01/28 19:42:40;;;;;;;0.73;0.73;;;;;;;;;;5066926;28;20094;-52
2021/01/28 19:45:06;;;;;;;0.75;0.20;;;;;;;;;;5060532;28;20029;-49
2021/01/28 19:47:32;;;;;;;0.88;0.45;;;;;;;;;;5057022;28;20032;-49
2021/01/28 19:49:59;;;;;;;0.38;0.38;;;;;;;;;;5067815;28;20044;-53
2021/01/28 19:52:25;;;;;;;1.92;1.60;;;;;;;;;;5068539;28;20021;-56
2021/01/28 19:54:51;;;;;;;20.27;10.00;;;;;;;;;;5069749;28;20016;-51
2021/01/28 19:57:17;;;;;;;0.20;0.10;;;;;;;;;;5065241;28;20456;-55
2021/01/28 19:59:44;;;;;;;0.73;0.68;;;;;;;;;;5067600;28;20048;-51
2021/01/28 20:02:11;;;;;;;0.35;0.28;;;;;;;;;;5069821;28;20032;-50
2021/01/28 20:04:38;;;;;;;0.30;0.10;;;;;;;;;;5067621;28;20016;-50
2021/01/28 20:07:04;;;;;;;0.70;0.63;;;;;;;;;;5069438;28;20025;-53
2021/01/28 20:09:35;;;;;;;2.55;0.43;;;;;;;;;;5066668;28;20032;-52
2021/01/28 20:12:01;;;;;;;0.20;0.10;;;;;;;;;;5067187;28;20040;-50
2021/01/28 20:14:27;;;;;;;0.20;0.20;;;;;;;;;;5067222;28;20035;-49
2021/01/28 20:16:53;;;;;;;6.68;0.60;;;;;;;;;;5069422;28;20033;-52
2021/01/28 20:19:20;;;;;;;0.52;0.20;;;;;;;;;;5068159;28;20016;-52
2021/01/28 20:21:46;;;;;;;1.15;0.25;;;;;;;;;;5068607;28;20398;-49
2021/01/28 20:24:12;;;;;;;0.13;0.00;;;;;;;;;;5066918;28;20244;-54
2021/01/28 20:26:38;;;;;;;1.25;0.63;;;;;;;;;;5066371;28;20067;-50
2021/01/28 20:29:04;;;;;;;0.95;0.30;;;;;;;;;;5069175;28;20023;-49
2021/01/28 20:31:30;;;;;;;1.45;0.35;;;;;;;;;;5067881;28;20050;-51
2021/01/28 20:33:56;;;;;;;0.38;0.25;;;;;;;;;;5067323;28;20027;-52
2021/01/28 20:36:22;;;;;;;0.10;0.10;;;;;;;;;;5065948;28;20077;-53
2021/01/28 20:38:49;;;;;;;0.10;0.10;;;;;;;;;;5066806;28;20414;-48
2021/01/28 20:41:16;;;;;;;0.00;0.00;;;;;;;;;;5065668;28;20028;-50
2021/01/28 20:43:42;;;;;;;0.40;0.22;;;;;;;;;;5067145;28;20013;-51
2021/01/28 20:46:10;;;;;;;3.97;0.57;;;;;;;;;;5068803;28;20558;-48
2021/01/28 20:48:36;;;;;;;0.90;0.10;;;;;;;;;;5065297;28;20489;-53
2021/01/28 20:51:02;;;;;;;1.55;0.50;;;;;;;;;;5065719;28;20040;-49
2021/01/28 20:53:28;;;;;;;0.00;0.00;;;;;;;;;;5066336;28;20477;-52
2021/01/28 20:55:54;;;;;;;0.00;0.00;;;;;;;;;;5068389;28;20115;-53